Terminal Aerodrome Forecast
Issued by NWS Corpus Christi, TX

Home | Current Version | Previous Version | Text Only | Print | Product List | Glossary On
Versions: 1 2 3 4 5 6 7 8 9 10 11 12 13 14
933
FTUS44 KCRP 262341
TAFVCT
TAF
KVCT 262341Z 2700/2724 16015KT P6SM SCT050
     FM270200 15008KT P6SM SCT025
      TEMPO 2710/2714 5SM BR SCT018
     FM271400 16008KT P6SM SCT025=

USA.gov is the U.S. government's official web portal to all federal, state and local government web resources and services.